createdAt,value
2023-04-01T00:02:38.331Z,90.69
2023-04-01T00:06:18.434Z,90.58
2023-04-01T00:09:53.634Z,90.29
2023-04-01T00:13:31.584Z,90.60
2023-04-01T00:17:09.236Z,90.65
2023-04-01T00:20:48.331Z,90.60
2023-04-01T00:24:24.693Z,90.41
2023-04-01T00:28:21.478Z,90.77
2023-04-01T00:31:39.995Z,90.68
2023-04-01T00:35:18.039Z,90.81
2023-04-01T00:38:55.566Z,90.70
2023-04-01T00:42:33.371Z,90.91
2023-04-01T00:46:10.838Z,90.68
2023-04-01T00:49:51.596Z,90.71
2023-04-01T00:53:26.559Z,91.22
2023-04-01T00:57:19.225Z,91.20
2023-04-01T01:00:41.872Z,91.48
2023-04-01T01:04:24.292Z,91.61
2023-04-01T01:08:22.475Z,91.55
2023-04-01T01:11:44.126Z,91.49
2023-04-01T01:15:37.430Z,91.72
2023-04-01T01:19:14.343Z,91.53
2023-04-01T01:23:13.359Z,91.71
2023-04-01T01:26:45.235Z,91.84
2023-04-01T01:30:10.644Z,91.69
2023-04-01T01:33:43.669Z,91.67
2023-04-01T01:37:12.402Z,91.76
2023-04-01T01:44:24.128Z,91.94
2023-04-01T01:48:02.316Z,91.51
2023-04-01T01:51:38.275Z,91.73
2023-04-01T01:55:48.462Z,91.83
2023-04-01T01:58:59.269Z,92.00
2023-04-01T02:02:33.192Z,91.50
2023-04-01T02:06:12.099Z,91.83
2023-04-01T02:09:47.095Z,91.77
2023-04-01T02:13:41.540Z,91.88
2023-04-01T02:17:06.592Z,91.88
2023-04-01T02:20:41.288Z,91.89
2023-04-01T02:24:17.432Z,91.82
2023-04-01T02:27:58.328Z,91.81
2023-04-01T02:31:33.455Z,91.87
2023-04-01T02:35:16.607Z,92.00
2023-04-01T02:38:49.089Z,92.19
2023-04-01T02:42:25.285Z,91.95
2023-04-01T02:46:03.374Z,92.16
2023-04-01T02:53:18.874Z,92.22
2023-04-01T02:56:56.674Z,92.29
2023-04-01T03:00:33.726Z,92.28
2023-04-01T03:04:11.216Z,92.51
2023-04-01T03:07:49.274Z,92.89
2023-04-01T03:11:27.351Z,92.91
2023-04-01T03:15:11.180Z,92.98
2023-04-01T03:18:42.010Z,93.24
2023-04-01T03:22:22.077Z,93.31
2023-04-01T03:25:57.176Z,93.30
2023-04-01T03:29:35.042Z,93.49
2023-04-01T03:33:13.531Z,93.35
2023-04-01T03:36:50.428Z,93.55
2023-04-01T03:40:27.917Z,93.49
2023-04-01T03:44:05.834Z,93.92
2023-04-01T03:47:43.754Z,93.56
2023-04-01T03:51:21.467Z,93.39
2023-04-01T03:54:58.890Z,93.68
2023-04-01T03:58:37.517Z,93.54
2023-04-01T04:02:14.095Z,93.55
2023-04-01T04:05:51.544Z,93.62
2023-04-01T04:09:32.316Z,93.96
2023-04-01T04:13:06.911Z,93.78
2023-04-01T04:16:44.733Z,94.17
2023-04-01T04:20:23.134Z,94.02
2023-04-01T04:24:01.599Z,94.04
2023-04-01T04:27:39.455Z,94.40
2023-04-01T04:31:23.409Z,94.09
2023-04-01T04:34:53.359Z,93.98
2023-04-01T04:38:31.808Z,94.21
2023-04-01T04:42:08.676Z,94.57
2023-04-01T04:45:46.928Z,94.38
2023-04-01T04:49:24.074Z,94.55
2023-04-01T04:53:02.040Z,94.21
2023-04-01T04:56:39.203Z,94.18
2023-04-01T05:00:17.414Z,94.28
2023-04-01T05:03:55.533Z,94.38
2023-04-01T05:07:32.750Z,94.60
2023-04-01T05:11:15.705Z,94.14
2023-04-01T05:14:47.846Z,94.17
2023-04-01T05:18:26.543Z,94.34
2023-04-01T05:22:03.333Z,94.13
2023-04-01T05:25:41.033Z,94.10
2023-04-01T05:29:18.606Z,94.10
2023-04-01T05:32:56.307Z,94.44
2023-04-01T05:36:33.597Z,94.15
2023-04-01T05:40:12.467Z,94.27
2023-04-01T05:43:49.485Z,94.39
2023-04-01T05:47:27.110Z,94.28
2023-04-01T05:51:06.196Z,94.29
2023-04-01T05:54:42.366Z,94.27
2023-04-01T05:58:19.745Z,94.23
2023-04-01T06:01:59.407Z,94.22
2023-04-01T06:05:41.745Z,94.23
2023-04-01T06:09:33.343Z,94.19
2023-04-01T06:13:28.964Z,94.28
2023-04-01T06:16:41.730Z,94.48
2023-04-01T06:20:38.523Z,94.37
2023-04-01T06:24:19.752Z,94.26
2023-04-01T06:27:43.913Z,94.20
2023-04-01T06:31:15.789Z,94.09
2023-04-01T06:35:17.301Z,94.38
2023-04-01T06:38:49.279Z,94.05
2023-04-01T06:42:31.913Z,94.13
2023-04-01T06:46:00.590Z,94.24
2023-04-01T06:49:50.909Z,94.61
2023-04-01T06:53:35.618Z,94.41
2023-04-01T06:57:38.466Z,94.06
2023-04-01T07:00:56.168Z,94.48
2023-04-01T07:04:35.251Z,94.21
2023-04-01T07:08:14.994Z,94.26
2023-04-01T07:11:44.573Z,94.24
2023-04-01T07:15:30.905Z,94.04
2023-04-01T07:19:18.341Z,94.26
2023-04-01T07:22:46.707Z,94.23
2023-04-01T07:26:24.272Z,93.79
2023-04-01T07:29:58.771Z,93.87
2023-04-01T07:33:45.038Z,93.88
2023-04-01T07:37:29.304Z,93.92
2023-04-01T07:41:13.910Z,93.98
2023-04-01T07:44:51.886Z,93.72
2023-04-01T07:48:41.743Z,93.73
2023-04-01T07:52:06.253Z,93.73
2023-04-01T07:55:23.509Z,93.62
2023-04-01T07:58:59.792Z,93.51
2023-04-01T08:03:10.746Z,93.27
2023-04-01T08:06:41.213Z,92.96
2023-04-01T08:10:32.134Z,92.88
2023-04-01T08:14:15.712Z,92.72
2023-04-01T08:18:08.129Z,92.84
2023-04-01T08:21:36.669Z,92.82
2023-04-01T08:24:55.366Z,92.69
2023-04-01T08:28:46.546Z,92.20
2023-04-01T08:32:33.636Z,92.39
2023-04-01T08:35:57.121Z,92.52
2023-04-01T08:39:35.338Z,92.28
2023-04-01T08:43:18.171Z,92.41
2023-04-01T08:46:42.582Z,92.68
2023-04-01T08:50:43.709Z,92.62
2023-04-01T08:54:27.080Z,92.12
2023-04-01T08:57:53.985Z,91.89
2023-04-01T09:01:32.876Z,91.94
2023-04-01T09:05:31.842Z,91.84
2023-04-01T09:09:01.752Z,91.78
2023-04-01T09:12:41.797Z,91.98
2023-04-01T09:16:23.720Z,92.13
2023-04-01T09:19:32.973Z,92.20
2023-04-01T09:23:36.036Z,92.16
2023-04-01T09:27:13.693Z,92.29
2023-04-01T09:31:01.633Z,92.14
2023-04-01T09:34:12.142Z,92.28
2023-04-01T09:37:48.127Z,92.29
2023-04-01T09:41:29.966Z,91.90
2023-04-01T09:45:17.963Z,91.81
2023-04-01T09:49:12.700Z,92.07
2023-04-01T09:52:40.257Z,92.09
2023-04-01T09:56:41.881Z,92.01
2023-04-01T10:00:01.773Z,91.75
2023-04-01T10:03:39.268Z,91.91
2023-04-01T10:07:33.288Z,91.80
2023-04-01T10:11:01.833Z,92.26
2023-04-01T10:14:39.463Z,91.47
2023-04-01T10:18:27.051Z,91.47
2023-04-01T10:22:06.867Z,91.68
2023-04-01T10:25:32.695Z,91.66
2023-04-01T10:29:03.945Z,91.60
2023-04-01T10:32:43.652Z,91.59
2023-04-01T10:36:36.063Z,91.70
2023-04-01T10:40:18.284Z,91.49
2023-04-01T10:44:00.662Z,91.49
2023-04-01T10:47:53.720Z,91.50
2023-04-01T10:51:20.230Z,91.49
2023-04-01T10:55:10.629Z,91.52
2023-04-01T11:03:23.392Z,91.45
2023-04-01T11:07:08.141Z,91.46
2023-04-01T11:10:29.953Z,91.47
2023-04-01T11:14:36.210Z,91.27
2023-04-01T11:17:47.059Z,91.65
2023-04-01T11:21:15.575Z,91.60
2023-04-01T11:25:17.353Z,91.47
2023-04-01T11:29:01.639Z,91.35
2023-04-01T11:36:36.372Z,91.59
2023-04-01T11:40:07.739Z,91.05
2023-04-01T11:44:08.350Z,90.82
2023-04-01T11:48:03.534Z,90.91
2023-04-01T11:51:28.068Z,91.00
2023-04-01T11:55:30.026Z,90.93
2023-04-01T11:58:44.088Z,90.65
2023-04-01T12:02:31.924Z,91.27
2023-04-01T12:06:16.774Z,91.05
2023-04-01T12:09:59.247Z,90.80
2023-04-01T12:13:16.075Z,91.03
2023-04-01T12:17:14.420Z,91.29
2023-04-01T12:20:43.317Z,91.01
2023-04-01T12:24:10.398Z,91.21
2023-04-01T12:28:01.287Z,91.22
2023-04-01T12:31:30.955Z,91.34
2023-04-01T12:35:49.587Z,90.78
2023-04-01T12:39:42.310Z,90.83
2023-04-01T12:43:06.215Z,91.12
2023-04-01T12:46:33.718Z,91.41
2023-04-01T12:50:27.630Z,91.25
2023-04-01T12:53:46.239Z,91.09
2023-04-01T12:57:17.440Z,91.09
2023-04-01T13:01:29.525Z,91.33
2023-04-01T13:04:56.956Z,91.02
2023-04-01T13:08:08.588Z,91.12
2023-04-01T13:12:37.324Z,91.16
2023-04-01T13:15:57.042Z,90.86
2023-04-01T13:19:21.916Z,90.66
2023-04-01T13:23:15.386Z,90.64
2023-04-01T13:27:08.876Z,90.49
2023-04-01T13:30:28.284Z,90.69
2023-04-01T13:34:18.409Z,90.59
2023-04-01T13:37:37.475Z,90.39
2023-04-01T13:41:26.619Z,90.30
2023-04-01T13:44:55.803Z,90.05
2023-04-01T13:48:42.738Z,90.13
2023-04-01T13:52:17.994Z,90.02
2023-04-01T13:55:48.728Z,89.66
2023-04-01T13:59:40.850Z,89.83
2023-04-01T14:03:28.306Z,89.67
2023-04-01T14:06:48.929Z,89.81
2023-04-01T14:11:04.406Z,89.37
2023-04-01T14:14:35.375Z,89.58
2023-04-01T14:21:41.759Z,89.40
2023-04-01T14:25:37.449Z,89.40
2023-04-01T14:29:01.170Z,89.48
2023-04-01T14:32:44.900Z,89.06
2023-04-01T14:36:37.409Z,88.89
2023-04-01T14:39:58.689Z,89.24
2023-04-01T14:43:22.929Z,88.91
2023-04-01T14:47:16.135Z,88.80
2023-04-01T14:50:46.312Z,88.72
2023-04-01T14:54:12.582Z,88.93
2023-04-01T14:58:19.575Z,88.87
2023-04-01T15:01:25.446Z,88.71
2023-04-01T15:05:16.303Z,88.33
2023-04-01T15:08:52.776Z,88.27
2023-04-01T15:12:59.398Z,88.11
2023-04-01T15:16:27.805Z,88.03
2023-04-01T15:19:51.151Z,87.97
2023-04-01T15:23:53.867Z,87.91
2023-04-01T15:27:54.542Z,87.64
2023-04-01T15:31:07.807Z,87.70
2023-04-01T15:34:38.806Z,87.49
2023-04-01T15:38:21.750Z,87.49
2023-04-01T15:42:11.175Z,87.62
2023-04-01T15:45:36.729Z,87.44
2023-04-01T15:49:39.089Z,87.20
2023-04-01T15:53:10.650Z,87.24
2023-04-01T15:56:28.429Z,87.36
2023-04-01T16:00:41.135Z,87.22
2023-04-01T16:03:51.797Z,87.09
2023-04-01T16:07:32.170Z,86.94
2023-04-01T16:11:06.563Z,86.74
2023-04-01T16:14:42.874Z,86.63
2023-04-01T16:18:28.125Z,86.56
2023-04-01T16:22:02.448Z,86.60
2023-04-01T16:25:36.166Z,86.63
2023-04-01T16:29:25.951Z,86.94
2023-04-01T16:32:58.646Z,86.96
2023-04-01T16:36:28.280Z,87.02
2023-04-01T16:40:38.109Z,86.27
2023-04-01T16:43:40.917Z,86.30
2023-04-01T16:47:22.748Z,86.55
2023-04-01T16:51:02.398Z,86.54
2023-04-01T16:54:50.291Z,86.22
2023-04-01T16:58:15.691Z,86.51
2023-04-01T17:01:55.531Z,86.54
2023-04-01T17:05:51.693Z,86.31
2023-04-01T17:09:46.189Z,86.06
2023-04-01T17:12:59.512Z,86.06
2023-04-01T17:16:43.557Z,86.01
2023-04-01T17:20:41.001Z,86.09
2023-04-01T17:24:19.611Z,86.03
2023-04-01T17:27:35.414Z,85.92
2023-04-01T17:31:12.301Z,85.92
2023-04-01T17:35:01.593Z,86.07
2023-04-01T17:38:52.063Z,85.77
2023-04-01T17:42:16.425Z,85.61
2023-04-01T17:45:59.472Z,86.01
2023-04-01T17:49:21.606Z,86.11
2023-04-01T17:52:55.571Z,85.88
2023-04-01T17:56:37.308Z,86.03
2023-04-01T18:00:17.382Z,86.07
2023-04-01T18:04:10.205Z,86.06
2023-04-01T18:07:38.529Z,85.75
2023-04-01T18:11:22.090Z,85.81
2023-04-01T18:14:43.829Z,85.76
2023-04-01T18:18:48.578Z,85.80
2023-04-01T18:22:29.130Z,85.51
2023-04-01T18:26:04.022Z,85.11
2023-04-01T18:29:24.277Z,85.17
2023-04-01T18:33:35.414Z,85.31
2023-04-01T18:37:12.135Z,85.05
2023-04-01T18:40:51.989Z,85.47
2023-04-01T18:44:28.059Z,85.41
2023-04-01T18:47:59.336Z,85.57
2023-04-01T18:51:45.301Z,85.54
2023-04-01T18:55:03.522Z,85.71
2023-04-01T18:59:03.412Z,85.61
2023-04-01T19:02:42.307Z,85.51
2023-04-01T19:05:58.049Z,85.58
2023-04-01T19:09:46.151Z,85.33
2023-04-01T19:13:25.927Z,85.12
2023-04-01T19:17:05.034Z,85.19
2023-04-01T19:21:03.028Z,85.16
2023-04-01T19:24:38.308Z,85.32
2023-04-01T19:27:52.288Z,85.31
2023-04-01T19:31:38.436Z,85.23
2023-04-01T19:35:04.961Z,85.16
2023-04-01T19:38:43.363Z,85.01
2023-04-01T19:42:23.200Z,85.21
2023-04-01T19:46:11.051Z,85.36
2023-04-01T19:49:47.201Z,85.44
2023-04-01T19:53:29.350Z,85.44
2023-04-01T19:57:21.979Z,85.55
2023-04-01T20:00:49.539Z,85.88
2023-04-01T20:04:38.440Z,85.87
2023-04-01T20:08:34.770Z,86.18
2023-04-01T20:11:57.435Z,86.23
2023-04-01T20:15:46.414Z,86.43
2023-04-01T20:18:58.885Z,86.56
2023-04-01T20:22:50.273Z,87.03
2023-04-01T20:26:11.836Z,87.61
2023-04-01T20:30:15.128Z,87.66
2023-04-01T20:33:36.444Z,88.20
2023-04-01T20:37:16.469Z,88.28
2023-04-01T20:40:45.893Z,88.24
2023-04-01T20:44:17.969Z,88.11
2023-04-01T20:48:03.493Z,88.05
2023-04-01T20:51:37.099Z,88.21
2023-04-01T20:55:19.496Z,88.68
2023-04-01T20:59:03.570Z,88.42
2023-04-01T21:06:29.272Z,88.49
2023-04-01T21:10:22.738Z,88.48
2023-04-01T21:13:34.129Z,88.43
2023-04-01T21:17:40.940Z,88.42
2023-04-01T21:21:16.873Z,88.50
2023-04-01T21:24:49.357Z,88.48
2023-04-01T21:28:16.545Z,88.38
2023-04-01T21:32:14.076Z,88.75
2023-04-01T21:35:37.795Z,87.94
2023-04-01T21:39:23.589Z,87.87
2023-04-01T21:42:57.759Z,87.87
2023-04-01T21:46:26.684Z,87.07
2023-04-01T21:50:23.193Z,87.49
2023-04-01T21:54:02.030Z,87.22
2023-04-01T21:57:40.963Z,87.33
2023-04-01T22:00:48.024Z,87.37
2023-04-01T22:04:38.751Z,87.64
2023-04-01T22:08:00.220Z,88.01
2023-04-01T22:12:04.729Z,87.81
2023-04-01T22:15:23.456Z,87.39
2023-04-01T22:19:15.823Z,87.28
2023-04-01T22:22:33.452Z,86.73
2023-04-01T22:26:18.199Z,85.60
2023-04-01T22:30:02.484Z,84.69
2023-04-01T22:33:54.492Z,84.66
2023-04-01T22:37:04.363Z,83.78
2023-04-01T22:40:55.244Z,83.71
2023-04-01T22:44:37.953Z,83.75
2023-04-01T22:47:53.483Z,83.48
2023-04-01T22:51:55.302Z,83.44
2023-04-01T22:55:35.572Z,82.75
2023-04-01T22:58:56.132Z,82.80
2023-04-01T23:02:37.126Z,82.69
2023-04-01T23:06:05.902Z,82.05
2023-04-01T23:09:41.135Z,81.96
2023-04-01T23:13:26.881Z,82.26
2023-04-01T23:17:16.700Z,81.62
2023-04-01T23:20:52.559Z,81.23
2023-04-01T23:24:36.614Z,81.43
2023-04-01T23:28:15.829Z,81.09
2023-04-01T23:31:46.263Z,80.71
2023-04-01T23:35:18.084Z,79.90
2023-04-01T23:38:49.953Z,79.58
2023-04-01T23:42:41.566Z,78.91
2023-04-01T23:46:04.745Z,79.04
2023-04-01T23:49:45.270Z,79.70
2023-04-01T23:53:21.708Z,78.61
2023-04-01T23:56:56.654Z,78.25
